Aviation Digital Data Service (ADDS)

Output produced by METARs form (0102 UTC 24 July 2016)
found at http://aviationweather.gov/adds/metars/
 
KOAJ 232323Z 2400/2424 20005KT P6SM SKC 
     FM240300 VRB03KT P6SM SKC 
     FM241000 VRB03KT 5SM BR FEW050 
     FM241200 VRB03KT P6SM FEW050 AMD LTD TO CLD VIS AND WIND